sensor_id;sensor_type;location;lat;lon;timestamp;P1;durP1;ratioP1;P2;durP2;ratioP2
12968;SDS011;6549;53.128;8.182;2023-03-14T00:03:00;15.48;;;3.50;;
12968;SDS011;6549;53.128;8.182;2023-03-14T00:06:04;18.23;;;3.53;;
12968;SDS011;6549;53.128;8.182;2023-03-14T00:09:05;17.92;;;4.18;;
12968;SDS011;6549;53.128;8.182;2023-03-14T00:12:06;16.27;;;3.30;;
12968;SDS011;6549;53.128;8.182;2023-03-14T00:15:07;17.42;;;3.40;;
12968;SDS011;6549;53.128;8.182;2023-03-14T00:18:08;18.75;;;4.47;;
12968;SDS011;6549;53.128;8.182;2023-03-14T00:21:09;15.23;;;3.70;;
12968;SDS011;6549;53.128;8.182;2023-03-14T00:24:10;13.25;;;3.40;;
12968;SDS011;6549;53.128;8.182;2023-03-14T00:27:10;14.57;;;3.33;;
12968;SDS011;6549;53.128;8.182;2023-03-14T00:30:11;14.38;;;3.00;;
12968;SDS011;6549;53.128;8.182;2023-03-14T00:33:11;16.88;;;3.63;;
12968;SDS011;6549;53.128;8.182;2023-03-14T00:36:13;18.20;;;3.45;;
12968;SDS011;6549;53.128;8.182;2023-03-14T00:39:17;14.05;;;3.13;;
12968;SDS011;6549;53.128;8.182;2023-03-14T00:42:17;17.85;;;3.60;;
12968;SDS011;6549;53.128;8.182;2023-03-14T00:45:17;17.02;;;3.47;;
12968;SDS011;6549;53.128;8.182;2023-03-14T00:48:18;10.57;;;3.60;;
12968;SDS011;6549;53.128;8.182;2023-03-14T00:51:19;15.50;;;3.50;;
12968;SDS011;6549;53.128;8.182;2023-03-14T00:54:20;11.90;;;3.08;;
12968;SDS011;6549;53.128;8.182;2023-03-14T00:57:21;11.85;;;3.72;;
12968;SDS011;6549;53.128;8.182;2023-03-14T01:00:21;8.95;;;3.17;;
12968;SDS011;6549;53.128;8.182;2023-03-14T01:03:22;9.68;;;3.17;;
12968;SDS011;6549;53.128;8.182;2023-03-14T01:06:25;11.13;;;3.30;;
12968;SDS011;6549;53.128;8.182;2023-03-14T01:09:26;9.55;;;2.90;;
12968;SDS011;6549;53.128;8.182;2023-03-14T01:12:27;11.70;;;3.17;;
12968;SDS011;6549;53.128;8.182;2023-03-14T01:15:27;9.88;;;3.08;;
12968;SDS011;6549;53.128;8.182;2023-03-14T01:18:28;7.25;;;2.97;;
12968;SDS011;6549;53.128;8.182;2023-03-14T01:21:29;5.22;;;3.05;;
12968;SDS011;6549;53.128;8.182;2023-03-14T01:24:31;9.05;;;3.22;;
12968;SDS011;6549;53.128;8.182;2023-03-14T01:27:32;11.00;;;3.53;;
12968;SDS011;6549;53.128;8.182;2023-03-14T01:30:32;9.43;;;3.08;;
12968;SDS011;6549;53.128;8.182;2023-03-14T01:33:32;11.60;;;3.70;;
12968;SDS011;6549;53.128;8.182;2023-03-14T01:36:33;8.18;;;3.58;;
12968;SDS011;6549;53.128;8.182;2023-03-14T01:39:33;9.00;;;3.30;;
12968;SDS011;6549;53.128;8.182;2023-03-14T01:42:34;7.80;;;3.40;;
12968;SDS011;6549;53.128;8.182;2023-03-14T01:48:58;9.60;;;3.58;;
12968;SDS011;6549;53.128;8.182;2023-03-14T01:55:17;9.38;;;3.60;;
12968;SDS011;6549;53.128;8.182;2023-03-14T01:58:21;9.48;;;3.75;;
12968;SDS011;6549;53.128;8.182;2023-03-14T02:01:25;9.10;;;3.50;;
12968;SDS011;6549;53.128;8.182;2023-03-14T02:04:27;10.48;;;4.10;;
12968;SDS011;6549;53.128;8.182;2023-03-14T02:10:48;8.75;;;3.97;;
12968;SDS011;6549;53.128;8.182;2023-03-14T02:13:49;9.05;;;4.15;;
12968;SDS011;6549;53.128;8.182;2023-03-14T02:16:50;9.35;;;4.18;;
12968;SDS011;6549;53.128;8.182;2023-03-14T02:19:57;10.88;;;3.90;;
12968;SDS011;6549;53.128;8.182;2023-03-14T02:23:07;7.03;;;3.40;;
12968;SDS011;6549;53.128;8.182;2023-03-14T02:26:11;8.85;;;3.42;;
12968;SDS011;6549;53.128;8.182;2023-03-14T02:29:22;9.00;;;3.78;;
12968;SDS011;6549;53.128;8.182;2023-03-14T02:32:23;8.52;;;3.38;;
12968;SDS011;6549;53.128;8.182;2023-03-14T02:35:27;12.48;;;3.53;;
12968;SDS011;6549;53.128;8.182;2023-03-14T02:38:34;10.65;;;3.40;;
12968;SDS011;6549;53.128;8.182;2023-03-14T02:41:39;7.20;;;2.60;;
12968;SDS011;6549;53.128;8.182;2023-03-14T02:44:48;7.45;;;2.10;;
12968;SDS011;6549;53.128;8.182;2023-03-14T02:48:16;5.97;;;1.63;;
12968;SDS011;6549;53.128;8.182;2023-03-14T02:51:20;6.38;;;1.33;;
12968;SDS011;6549;53.128;8.182;2023-03-14T02:54:22;5.47;;;1.35;;
12968;SDS011;6549;53.128;8.182;2023-03-14T02:57:22;6.20;;;1.48;;
12968;SDS011;6549;53.128;8.182;2023-03-14T03:00:23;3.65;;;1.10;;
12968;SDS011;6549;53.128;8.182;2023-03-14T03:03:23;6.13;;;1.50;;
12968;SDS011;6549;53.128;8.182;2023-03-14T03:06:23;6.13;;;1.40;;
12968;SDS011;6549;53.128;8.182;2023-03-14T03:09:23;6.25;;;1.60;;
12968;SDS011;6549;53.128;8.182;2023-03-14T03:12:24;4.78;;;1.58;;
12968;SDS011;6549;53.128;8.182;2023-03-14T03:15:24;4.00;;;1.40;;
12968;SDS011;6549;53.128;8.182;2023-03-14T03:18:26;5.75;;;1.40;;
12968;SDS011;6549;53.128;8.182;2023-03-14T03:21:26;4.93;;;1.45;;
12968;SDS011;6549;53.128;8.182;2023-03-14T03:24:26;4.07;;;1.40;;
12968;SDS011;6549;53.128;8.182;2023-03-14T03:27:29;4.85;;;1.30;;
12968;SDS011;6549;53.128;8.182;2023-03-14T03:30:30;7.47;;;1.50;;
12968;SDS011;6549;53.128;8.182;2023-03-14T03:33:30;3.30;;;1.33;;
12968;SDS011;6549;53.128;8.182;2023-03-14T03:36:31;5.57;;;1.30;;
12968;SDS011;6549;53.128;8.182;2023-03-14T03:39:32;6.10;;;1.40;;
12968;SDS011;6549;53.128;8.182;2023-03-14T03:42:32;4.13;;;1.20;;
12968;SDS011;6549;53.128;8.182;2023-03-14T03:45:33;4.63;;;1.52;;
12968;SDS011;6549;53.128;8.182;2023-03-14T03:48:34;4.15;;;1.48;;
12968;SDS011;6549;53.128;8.182;2023-03-14T03:51:35;7.07;;;1.50;;
12968;SDS011;6549;53.128;8.182;2023-03-14T03:54:35;3.25;;;1.50;;
12968;SDS011;6549;53.128;8.182;2023-03-14T03:57:36;7.03;;;2.45;;
12968;SDS011;6549;53.128;8.182;2023-03-14T04:00:36;6.05;;;2.67;;
12968;SDS011;6549;53.128;8.182;2023-03-14T04:03:37;9.00;;;2.80;;
12968;SDS011;6549;53.128;8.182;2023-03-14T04:06:40;9.13;;;3.00;;
12968;SDS011;6549;53.128;8.182;2023-03-14T04:09:41;6.97;;;3.20;;
12968;SDS011;6549;53.128;8.182;2023-03-14T04:12:42;6.88;;;3.00;;
12968;SDS011;6549;53.128;8.182;2023-03-14T04:15:42;6.03;;;2.95;;
12968;SDS011;6549;53.128;8.182;2023-03-14T04:18:42;9.20;;;3.00;;
12968;SDS011;6549;53.128;8.182;2023-03-14T04:21:43;9.70;;;3.17;;
12968;SDS011;6549;53.128;8.182;2023-03-14T04:24:46;4.95;;;2.80;;
12968;SDS011;6549;53.128;8.182;2023-03-14T04:27:47;8.57;;;3.30;;
12968;SDS011;6549;53.128;8.182;2023-03-14T04:30:47;7.80;;;2.83;;
12968;SDS011;6549;53.128;8.182;2023-03-14T04:33:47;5.85;;;2.70;;
12968;SDS011;6549;53.128;8.182;2023-03-14T04:36:48;8.57;;;2.58;;
12968;SDS011;6549;53.128;8.182;2023-03-14T04:39:48;6.10;;;2.25;;
12968;SDS011;6549;53.128;8.182;2023-03-14T04:42:49;4.57;;;2.00;;
12968;SDS011;6549;53.128;8.182;2023-03-14T04:45:49;7.90;;;2.38;;
12968;SDS011;6549;53.128;8.182;2023-03-14T04:48:49;6.75;;;2.15;;
12968;SDS011;6549;53.128;8.182;2023-03-14T04:51:50;5.13;;;1.95;;
12968;SDS011;6549;53.128;8.182;2023-03-14T04:54:53;7.32;;;2.08;;
12968;SDS011;6549;53.128;8.182;2023-03-14T04:57:53;6.50;;;1.98;;
12968;SDS011;6549;53.128;8.182;2023-03-14T05:00:53;6.43;;;1.88;;
12968;SDS011;6549;53.128;8.182;2023-03-14T05:03:54;7.80;;;2.20;;
12968;SDS011;6549;53.128;8.182;2023-03-14T05:06:54;7.72;;;2.30;;
12968;SDS011;6549;53.128;8.182;2023-03-14T05:09:54;4.85;;;1.90;;
12968;SDS011;6549;53.128;8.182;2023-03-14T05:12:55;10.50;;;2.28;;
12968;SDS011;6549;53.128;8.182;2023-03-14T05:16:02;6.38;;;1.98;;
12968;SDS011;6549;53.128;8.182;2023-03-14T05:19:04;6.47;;;1.98;;
12968;SDS011;6549;53.128;8.182;2023-03-14T05:22:04;7.05;;;2.08;;
12968;SDS011;6549;53.128;8.182;2023-03-14T05:25:05;8.23;;;2.40;;
12968;SDS011;6549;53.128;8.182;2023-03-14T05:28:06;8.95;;;2.85;;
12968;SDS011;6549;53.128;8.182;2023-03-14T05:31:06;6.75;;;2.55;;
12968;SDS011;6549;53.128;8.182;2023-03-14T05:34:07;10.85;;;2.67;;
12968;SDS011;6549;53.128;8.182;2023-03-14T05:37:08;7.70;;;2.60;;
12968;SDS011;6549;53.128;8.182;2023-03-14T05:40:08;10.50;;;2.75;;
12968;SDS011;6549;53.128;8.182;2023-03-14T05:43:09;8.82;;;2.67;;
12968;SDS011;6549;53.128;8.182;2023-03-14T05:46:09;7.30;;;2.53;;
12968;SDS011;6549;53.128;8.182;2023-03-14T05:49:10;6.75;;;2.40;;
12968;SDS011;6549;53.128;8.182;2023-03-14T05:52:10;7.43;;;2.60;;
12968;SDS011;6549;53.128;8.182;2023-03-14T05:55:10;9.93;;;2.58;;
12968;SDS011;6549;53.128;8.182;2023-03-14T05:58:11;7.20;;;2.67;;
12968;SDS011;6549;53.128;8.182;2023-03-14T06:01:11;9.23;;;2.40;;
12968;SDS011;6549;53.128;8.182;2023-03-14T06:04:11;5.80;;;2.20;;
12968;SDS011;6549;53.128;8.182;2023-03-14T06:07:12;8.25;;;2.63;;
12968;SDS011;6549;53.128;8.182;2023-03-14T06:10:12;7.00;;;2.40;;
12968;SDS011;6549;53.128;8.182;2023-03-14T06:13:12;6.82;;;2.50;;
12968;SDS011;6549;53.128;8.182;2023-03-14T06:16:13;8.52;;;2.92;;
12968;SDS011;6549;53.128;8.182;2023-03-14T06:19:14;4.90;;;2.42;;
12968;SDS011;6549;53.128;8.182;2023-03-14T06:22:14;8.27;;;2.58;;
12968;SDS011;6549;53.128;8.182;2023-03-14T06:25:15;8.23;;;2.90;;
12968;SDS011;6549;53.128;8.182;2023-03-14T06:28:16;12.88;;;3.25;;
12968;SDS011;6549;53.128;8.182;2023-03-14T06:31:16;7.88;;;2.90;;
12968;SDS011;6549;53.128;8.182;2023-03-14T06:34:17;5.85;;;2.80;;
12968;SDS011;6549;53.128;8.182;2023-03-14T06:37:17;10.25;;;3.60;;
12968;SDS011;6549;53.128;8.182;2023-03-14T06:40:18;7.55;;;3.40;;
12968;SDS011;6549;53.128;8.182;2023-03-14T06:43:18;11.05;;;3.63;;
12968;SDS011;6549;53.128;8.182;2023-03-14T06:46:18;9.18;;;3.38;;
12968;SDS011;6549;53.128;8.182;2023-03-14T06:49:18;9.98;;;3.60;;
12968;SDS011;6549;53.128;8.182;2023-03-14T06:52:19;12.15;;;3.42;;
12968;SDS011;6549;53.128;8.182;2023-03-14T06:55:19;8.73;;;3.03;;
12968;SDS011;6549;53.128;8.182;2023-03-14T06:58:20;6.20;;;2.70;;
12968;SDS011;6549;53.128;8.182;2023-03-14T07:01:22;7.82;;;2.75;;
12968;SDS011;6549;53.128;8.182;2023-03-14T07:04:25;7.82;;;2.67;;
12968;SDS011;6549;53.128;8.182;2023-03-14T07:07:25;6.72;;;2.22;;
12968;SDS011;6549;53.128;8.182;2023-03-14T07:10:26;9.13;;;2.70;;
12968;SDS011;6549;53.128;8.182;2023-03-14T07:13:26;7.32;;;2.33;;
12968;SDS011;6549;53.128;8.182;2023-03-14T07:16:26;8.75;;;3.17;;
12968;SDS011;6549;53.128;8.182;2023-03-14T07:19:28;9.70;;;3.25;;
12968;SDS011;6549;53.128;8.182;2023-03-14T07:22:29;10.15;;;2.55;;
12968;SDS011;6549;53.128;8.182;2023-03-14T07:25:29;10.18;;;2.67;;
12968;SDS011;6549;53.128;8.182;2023-03-14T07:28:30;10.50;;;2.33;;
12968;SDS011;6549;53.128;8.182;2023-03-14T07:31:30;8.95;;;2.75;;
12968;SDS011;6549;53.128;8.182;2023-03-14T07:34:31;9.40;;;3.05;;
12968;SDS011;6549;53.128;8.182;2023-03-14T07:37:31;9.25;;;2.50;;
12968;SDS011;6549;53.128;8.182;2023-03-14T07:40:32;8.93;;;3.33;;
12968;SDS011;6549;53.128;8.182;2023-03-14T07:43:32;8.48;;;2.75;;
12968;SDS011;6549;53.128;8.182;2023-03-14T07:46:33;6.95;;;2.80;;
12968;SDS011;6549;53.128;8.182;2023-03-14T07:49:33;9.27;;;2.72;;
12968;SDS011;6549;53.128;8.182;2023-03-14T07:52:34;9.73;;;2.70;;
12968;SDS011;6549;53.128;8.182;2023-03-14T07:55:34;9.23;;;2.58;;
12968;SDS011;6549;53.128;8.182;2023-03-14T07:58:34;9.40;;;3.42;;
12968;SDS011;6549;53.128;8.182;2023-03-14T08:01:35;7.60;;;2.55;;
12968;SDS011;6549;53.128;8.182;2023-03-14T08:04:35;8.77;;;2.53;;
12968;SDS011;6549;53.128;8.182;2023-03-14T08:07:36;11.57;;;2.78;;
12968;SDS011;6549;53.128;8.182;2023-03-14T08:10:36;11.60;;;3.08;;
12968;SDS011;6549;53.128;8.182;2023-03-14T08:13:37;9.15;;;2.53;;
12968;SDS011;6549;53.128;8.182;2023-03-14T08:16:37;8.55;;;2.33;;
12968;SDS011;6549;53.128;8.182;2023-03-14T08:19:38;4.85;;;1.90;;
12968;SDS011;6549;53.128;8.182;2023-03-14T08:22:38;7.75;;;2.22;;
12968;SDS011;6549;53.128;8.182;2023-03-14T08:25:39;7.65;;;2.17;;
12968;SDS011;6549;53.128;8.182;2023-03-14T08:28:40;4.72;;;2.00;;
12968;SDS011;6549;53.128;8.182;2023-03-14T08:31:40;7.47;;;2.15;;
12968;SDS011;6549;53.128;8.182;2023-03-14T08:34:40;4.45;;;1.70;;
12968;SDS011;6549;53.128;8.182;2023-03-14T08:37:41;3.25;;;1.13;;
12968;SDS011;6549;53.128;8.182;2023-03-14T08:40:41;3.00;;;0.88;;
12968;SDS011;6549;53.128;8.182;2023-03-14T08:43:41;3.75;;;0.90;;
12968;SDS011;6549;53.128;8.182;2023-03-14T08:46:42;2.05;;;0.60;;
12968;SDS011;6549;53.128;8.182;2023-03-14T08:49:42;5.38;;;0.63;;
12968;SDS011;6549;53.128;8.182;2023-03-14T08:52:42;2.70;;;0.50;;
12968;SDS011;6549;53.128;8.182;2023-03-14T08:55:43;1.95;;;0.50;;
12968;SDS011;6549;53.128;8.182;2023-03-14T08:58:43;4.38;;;0.70;;
12968;SDS011;6549;53.128;8.182;2023-03-14T09:01:43;3.70;;;0.50;;
12968;SDS011;6549;53.128;8.182;2023-03-14T09:04:44;2.15;;;0.65;;
12968;SDS011;6549;53.128;8.182;2023-03-14T09:07:44;1.70;;;0.47;;
12968;SDS011;6549;53.128;8.182;2023-03-14T09:10:44;2.38;;;0.60;;
12968;SDS011;6549;53.128;8.182;2023-03-14T09:13:45;0.70;;;0.30;;
12968;SDS011;6549;53.128;8.182;2023-03-14T09:16:45;1.42;;;0.40;;
12968;SDS011;6549;53.128;8.182;2023-03-14T09:19:45;1.80;;;0.45;;
12968;SDS011;6549;53.128;8.182;2023-03-14T09:22:46;2.47;;;0.52;;
12968;SDS011;6549;53.128;8.182;2023-03-14T09:25:46;1.30;;;0.25;;
12968;SDS011;6549;53.128;8.182;2023-03-14T09:28:47;0.43;;;0.30;;
12968;SDS011;6549;53.128;8.182;2023-03-14T09:31:47;0.68;;;0.30;;
12968;SDS011;6549;53.128;8.182;2023-03-14T09:34:47;0.38;;;0.30;;
12968;SDS011;6549;53.128;8.182;2023-03-14T09:37:48;0.95;;;0.55;;
12968;SDS011;6549;53.128;8.182;2023-03-14T09:40:48;0.75;;;0.30;;
12968;SDS011;6549;53.128;8.182;2023-03-14T09:43:49;1.15;;;0.50;;
12968;SDS011;6549;53.128;8.182;2023-03-14T09:47:10;0.45;;;0.45;;
12968;SDS011;6549;53.128;8.182;2023-03-14T09:50:14;2.85;;;0.63;;
12968;SDS011;6549;53.128;8.182;2023-03-14T09:53:17;1.50;;;0.40;;
12968;SDS011;6549;53.128;8.182;2023-03-14T09:59:27;2.20;;;0.40;;
12968;SDS011;6549;53.128;8.182;2023-03-14T10:02:32;3.05;;;0.70;;
12968;SDS011;6549;53.128;8.182;2023-03-14T10:05:34;2.72;;;0.60;;
12968;SDS011;6549;53.128;8.182;2023-03-14T10:08:35;0.98;;;0.52;;
12968;SDS011;6549;53.128;8.182;2023-03-14T10:11:35;1.80;;;0.75;;
12968;SDS011;6549;53.128;8.182;2023-03-14T10:14:37;5.18;;;1.00;;
12968;SDS011;6549;53.128;8.182;2023-03-14T10:17:47;1.63;;;0.63;;
12968;SDS011;6549;53.128;8.182;2023-03-14T10:20:48;1.45;;;0.47;;
12968;SDS011;6549;53.128;8.182;2023-03-14T10:27:23;1.67;;;1.00;;
12968;SDS011;6549;53.128;8.182;2023-03-14T10:30:38;3.72;;;0.77;;
12968;SDS011;6549;53.128;8.182;2023-03-14T10:33:57;7.97;;;1.02;;
12968;SDS011;6549;53.128;8.182;2023-03-14T10:37:06;3.05;;;1.20;;
12968;SDS011;6549;53.128;8.182;2023-03-14T10:40:16;5.43;;;0.90;;
12968;SDS011;6549;53.128;8.182;2023-03-14T10:43:20;4.13;;;1.10;;
12968;SDS011;6549;53.128;8.182;2023-03-14T10:46:26;5.53;;;0.93;;
12968;SDS011;6549;53.128;8.182;2023-03-14T10:49:35;8.60;;;1.45;;
12968;SDS011;6549;53.128;8.182;2023-03-14T10:52:36;8.73;;;1.45;;
12968;SDS011;6549;53.128;8.182;2023-03-14T10:55:48;9.30;;;1.38;;
12968;SDS011;6549;53.128;8.182;2023-03-14T10:58:50;8.00;;;1.15;;
12968;SDS011;6549;53.128;8.182;2023-03-14T11:08:09;11.85;;;1.63;;
12968;SDS011;6549;53.128;8.182;2023-03-14T11:14:34;9.27;;;1.45;;
12968;SDS011;6549;53.128;8.182;2023-03-14T11:17:41;7.60;;;1.33;;
12968;SDS011;6549;53.128;8.182;2023-03-14T11:20:58;12.80;;;2.20;;
12968;SDS011;6549;53.128;8.182;2023-03-14T11:40:28;13.32;;;2.03;;
12968;SDS011;6549;53.128;8.182;2023-03-14T11:46:50;16.50;;;2.42;;
12968;SDS011;6549;53.128;8.182;2023-03-14T11:50:17;13.20;;;2.42;;
12968;SDS011;6549;53.128;8.182;2023-03-14T11:53:22;14.73;;;2.90;;
12968;SDS011;6549;53.128;8.182;2023-03-14T11:56:46;21.90;;;2.83;;
12968;SDS011;6549;53.128;8.182;2023-03-14T12:00:00;14.07;;;2.60;;
12968;SDS011;6549;53.128;8.182;2023-03-14T12:03:29;14.55;;;1.98;;
12968;SDS011;6549;53.128;8.182;2023-03-14T12:06:46;13.65;;;1.88;;
12968;SDS011;6549;53.128;8.182;2023-03-14T12:09:49;12.95;;;2.20;;
12968;SDS011;6549;53.128;8.182;2023-03-14T12:12:51;13.55;;;1.80;;
12968;SDS011;6549;53.128;8.182;2023-03-14T12:15:59;14.10;;;2.47;;
12968;SDS011;6549;53.128;8.182;2023-03-14T12:22:21;8.65;;;1.70;;
12968;SDS011;6549;53.128;8.182;2023-03-14T12:25:26;8.60;;;1.80;;
12968;SDS011;6549;53.128;8.182;2023-03-14T12:34:44;6.40;;;1.10;;
12968;SDS011;6549;53.128;8.182;2023-03-14T12:37:47;6.35;;;1.38;;
12968;SDS011;6549;53.128;8.182;2023-03-14T12:44:08;5.57;;;1.38;;
12968;SDS011;6549;53.128;8.182;2023-03-14T12:50:44;11.13;;;1.80;;
12968;SDS011;6549;53.128;8.182;2023-03-14T12:57:15;8.85;;;2.42;;
12968;SDS011;6549;53.128;8.182;2023-03-14T13:00:34;6.32;;;1.63;;
12968;SDS011;6549;53.128;8.182;2023-03-14T13:03:40;7.15;;;1.50;;
12968;SDS011;6549;53.128;8.182;2023-03-14T13:10:32;6.40;;;1.20;;
12968;SDS011;6549;53.128;8.182;2023-03-14T13:13:14;6.38;;;1.50;;
12968;SDS011;6549;53.128;8.182;2023-03-14T13:16:21;8.45;;;1.30;;
12968;SDS011;6549;53.128;8.182;2023-03-14T13:19:23;11.32;;;1.45;;
12968;SDS011;6549;53.128;8.182;2023-03-14T13:22:27;10.25;;;1.60;;
12968;SDS011;6549;53.128;8.182;2023-03-14T13:25:34;8.57;;;1.40;;
12968;SDS011;6549;53.128;8.182;2023-03-14T13:28:35;12.95;;;1.88;;
12968;SDS011;6549;53.128;8.182;2023-03-14T13:31:36;6.43;;;1.42;;
12968;SDS011;6549;53.128;8.182;2023-03-14T13:34:36;8.07;;;1.63;;
12968;SDS011;6549;53.128;8.182;2023-03-14T13:37:38;9.98;;;2.33;;
12968;SDS011;6549;53.128;8.182;2023-03-14T13:43:43;10.50;;;1.77;;
12968;SDS011;6549;53.128;8.182;2023-03-14T13:46:44;10.35;;;1.70;;
12968;SDS011;6549;53.128;8.182;2023-03-14T13:49:45;16.23;;;2.20;;
12968;SDS011;6549;53.128;8.182;2023-03-14T13:52:46;8.63;;;1.40;;
12968;SDS011;6549;53.128;8.182;2023-03-14T13:55:48;9.03;;;1.57;;
12968;SDS011;6549;53.128;8.182;2023-03-14T13:58:50;5.78;;;1.42;;
12968;SDS011;6549;53.128;8.182;2023-03-14T14:01:51;8.18;;;1.52;;
12968;SDS011;6549;53.128;8.182;2023-03-14T14:04:52;6.47;;;1.67;;
12968;SDS011;6549;53.128;8.182;2023-03-14T14:07:53;8.93;;;1.48;;
12968;SDS011;6549;53.128;8.182;2023-03-14T14:10:55;6.60;;;1.55;;
12968;SDS011;6549;53.128;8.182;2023-03-14T14:14:02;6.35;;;1.50;;
12968;SDS011;6549;53.128;8.182;2023-03-14T14:17:05;6.80;;;1.40;;
12968;SDS011;6549;53.128;8.182;2023-03-14T14:20:12;11.13;;;2.00;;
12968;SDS011;6549;53.128;8.182;2023-03-14T14:23:21;11.13;;;1.60;;
12968;SDS011;6549;53.128;8.182;2023-03-14T14:26:25;9.63;;;1.73;;
12968;SDS011;6549;53.128;8.182;2023-03-14T14:29:28;10.63;;;1.55;;
12968;SDS011;6549;53.128;8.182;2023-03-14T14:32:36;7.55;;;1.60;;
12968;SDS011;6549;53.128;8.182;2023-03-14T14:35:38;6.43;;;1.50;;
12968;SDS011;6549;53.128;8.182;2023-03-14T14:38:38;4.75;;;1.25;;
12968;SDS011;6549;53.128;8.182;2023-03-14T14:41:39;8.20;;;1.02;;
12968;SDS011;6549;53.128;8.182;2023-03-14T14:51:01;9.52;;;1.95;;
12968;SDS011;6549;53.128;8.182;2023-03-14T14:54:13;8.93;;;1.67;;
12968;SDS011;6549;53.128;8.182;2023-03-14T14:57:19;8.77;;;1.52;;
12968;SDS011;6549;53.128;8.182;2023-03-14T15:00:23;8.98;;;1.45;;
12968;SDS011;6549;53.128;8.182;2023-03-14T15:03:26;6.85;;;1.05;;
12968;SDS011;6549;53.128;8.182;2023-03-14T15:06:29;5.38;;;1.73;;
12968;SDS011;6549;53.128;8.182;2023-03-14T15:09:31;10.90;;;1.70;;
12968;SDS011;6549;53.128;8.182;2023-03-14T15:12:31;7.47;;;1.23;;
12968;SDS011;6549;53.128;8.182;2023-03-14T15:15:31;5.97;;;1.30;;
12968;SDS011;6549;53.128;8.182;2023-03-14T15:18:32;8.85;;;1.38;;
12968;SDS011;6549;53.128;8.182;2023-03-14T15:21:32;4.80;;;1.73;;
12968;SDS011;6549;53.128;8.182;2023-03-14T15:24:33;7.10;;;1.50;;
12968;SDS011;6549;53.128;8.182;2023-03-14T15:27:33;7.38;;;2.00;;
12968;SDS011;6549;53.128;8.182;2023-03-14T15:30:34;10.32;;;1.67;;
12968;SDS011;6549;53.128;8.182;2023-03-14T15:33:34;10.20;;;2.22;;
12968;SDS011;6549;53.128;8.182;2023-03-14T15:36:35;8.23;;;1.77;;
12968;SDS011;6549;53.128;8.182;2023-03-14T15:39:36;6.45;;;1.25;;
12968;SDS011;6549;53.128;8.182;2023-03-14T15:42:36;7.80;;;1.55;;
12968;SDS011;6549;53.128;8.182;2023-03-14T15:45:37;8.35;;;1.40;;
12968;SDS011;6549;53.128;8.182;2023-03-14T15:48:37;8.23;;;1.70;;
12968;SDS011;6549;53.128;8.182;2023-03-14T15:51:37;8.10;;;1.30;;
12968;SDS011;6549;53.128;8.182;2023-03-14T15:54:38;6.90;;;1.40;;
12968;SDS011;6549;53.128;8.182;2023-03-14T15:57:38;11.80;;;1.80;;
12968;SDS011;6549;53.128;8.182;2023-03-14T16:00:38;6.70;;;1.52;;
12968;SDS011;6549;53.128;8.182;2023-03-14T16:03:39;6.63;;;1.33;;
12968;SDS011;6549;53.128;8.182;2023-03-14T16:06:40;6.80;;;1.27;;
12968;SDS011;6549;53.128;8.182;2023-03-14T16:09:40;7.72;;;1.40;;
12968;SDS011;6549;53.128;8.182;2023-03-14T16:12:41;8.38;;;1.33;;
12968;SDS011;6549;53.128;8.182;2023-03-14T16:15:42;5.72;;;1.67;;
12968;SDS011;6549;53.128;8.182;2023-03-14T16:18:42;8.50;;;1.90;;
12968;SDS011;6549;53.128;8.182;2023-03-14T16:21:42;8.18;;;1.65;;
12968;SDS011;6549;53.128;8.182;2023-03-14T16:24:43;9.25;;;1.60;;
12968;SDS011;6549;53.128;8.182;2023-03-14T16:27:43;4.78;;;1.23;;
12968;SDS011;6549;53.128;8.182;2023-03-14T16:30:43;7.20;;;1.50;;
12968;SDS011;6549;53.128;8.182;2023-03-14T16:33:44;8.82;;;1.75;;
12968;SDS011;6549;53.128;8.182;2023-03-14T16:36:44;8.48;;;1.73;;
12968;SDS011;6549;53.128;8.182;2023-03-14T16:39:46;8.27;;;1.93;;
12968;SDS011;6549;53.128;8.182;2023-03-14T16:42:48;4.45;;;1.30;;
12968;SDS011;6549;53.128;8.182;2023-03-14T16:45:49;6.00;;;1.40;;
12968;SDS011;6549;53.128;8.182;2023-03-14T16:48:49;8.90;;;1.50;;
12968;SDS011;6549;53.128;8.182;2023-03-14T16:51:50;5.85;;;1.05;;
12968;SDS011;6549;53.128;8.182;2023-03-14T16:54:50;6.57;;;1.20;;
12968;SDS011;6549;53.128;8.182;2023-03-14T16:57:52;6.43;;;1.30;;
12968;SDS011;6549;53.128;8.182;2023-03-14T17:00:52;9.07;;;1.58;;
12968;SDS011;6549;53.128;8.182;2023-03-14T17:03:52;8.60;;;1.95;;
12968;SDS011;6549;53.128;8.182;2023-03-14T17:06:53;5.10;;;1.55;;
12968;SDS011;6549;53.128;8.182;2023-03-14T17:09:53;4.90;;;1.33;;
12968;SDS011;6549;53.128;8.182;2023-03-14T17:12:53;6.05;;;1.15;;
12968;SDS011;6549;53.128;8.182;2023-03-14T17:15:54;4.95;;;1.08;;
12968;SDS011;6549;53.128;8.182;2023-03-14T17:18:56;7.03;;;1.95;;
12968;SDS011;6549;53.128;8.182;2023-03-14T17:21:56;6.45;;;1.23;;
12968;SDS011;6549;53.128;8.182;2023-03-14T17:24:56;6.28;;;1.80;;
12968;SDS011;6549;53.128;8.182;2023-03-14T17:27:57;6.13;;;2.05;;
12968;SDS011;6549;53.128;8.182;2023-03-14T17:31:01;6.72;;;1.40;;
12968;SDS011;6549;53.128;8.182;2023-03-14T17:34:01;7.35;;;2.20;;
12968;SDS011;6549;53.128;8.182;2023-03-14T17:37:02;7.85;;;1.40;;
12968;SDS011;6549;53.128;8.182;2023-03-14T17:40:02;7.15;;;1.45;;
12968;SDS011;6549;53.128;8.182;2023-03-14T17:43:03;4.40;;;1.67;;
12968;SDS011;6549;53.128;8.182;2023-03-14T17:46:04;5.30;;;1.50;;
12968;SDS011;6549;53.128;8.182;2023-03-14T17:49:10;7.38;;;2.67;;
12968;SDS011;6549;53.128;8.182;2023-03-14T17:52:10;9.63;;;2.60;;
12968;SDS011;6549;53.128;8.182;2023-03-14T17:55:11;5.65;;;1.42;;
12968;SDS011;6549;53.128;8.182;2023-03-14T17:58:12;9.98;;;2.15;;
12968;SDS011;6549;53.128;8.182;2023-03-14T18:01:13;7.47;;;2.20;;
12968;SDS011;6549;53.128;8.182;2023-03-14T18:04:15;7.32;;;1.83;;
12968;SDS011;6549;53.128;8.182;2023-03-14T18:07:16;8.60;;;2.42;;
12968;SDS011;6549;53.128;8.182;2023-03-14T18:10:17;6.65;;;3.33;;
12968;SDS011;6549;53.128;8.182;2023-03-14T18:13:19;8.90;;;1.80;;
12968;SDS011;6549;53.128;8.182;2023-03-14T18:16:19;9.85;;;2.10;;
12968;SDS011;6549;53.128;8.182;2023-03-14T18:19:20;8.05;;;2.00;;
12968;SDS011;6549;53.128;8.182;2023-03-14T18:22:20;6.20;;;1.30;;
12968;SDS011;6549;53.128;8.182;2023-03-14T18:25:21;5.32;;;1.63;;
12968;SDS011;6549;53.128;8.182;2023-03-14T18:28:21;5.28;;;1.70;;
12968;SDS011;6549;53.128;8.182;2023-03-14T18:31:22;7.07;;;1.80;;
12968;SDS011;6549;53.128;8.182;2023-03-14T18:34:24;6.30;;;1.92;;
12968;SDS011;6549;53.128;8.182;2023-03-14T18:37:25;8.82;;;2.53;;
12968;SDS011;6549;53.128;8.182;2023-03-14T18:40:25;7.18;;;2.20;;
12968;SDS011;6549;53.128;8.182;2023-03-14T18:43:26;8.35;;;2.30;;
12968;SDS011;6549;53.128;8.182;2023-03-14T18:46:26;6.22;;;2.13;;
12968;SDS011;6549;53.128;8.182;2023-03-14T18:49:27;7.85;;;1.95;;
12968;SDS011;6549;53.128;8.182;2023-03-14T18:52:27;5.35;;;1.65;;
12968;SDS011;6549;53.128;8.182;2023-03-14T18:55:27;6.43;;;2.20;;
12968;SDS011;6549;53.128;8.182;2023-03-14T18:58:28;7.65;;;2.30;;
12968;SDS011;6549;53.128;8.182;2023-03-14T19:01:28;10.90;;;3.22;;
12968;SDS011;6549;53.128;8.182;2023-03-14T19:04:30;11.30;;;3.63;;
12968;SDS011;6549;53.128;8.182;2023-03-14T19:07:30;11.20;;;2.30;;
12968;SDS011;6549;53.128;8.182;2023-03-14T19:10:32;6.72;;;2.42;;
12968;SDS011;6549;53.128;8.182;2023-03-14T19:13:33;14.52;;;3.90;;
12968;SDS011;6549;53.128;8.182;2023-03-14T19:16:34;12.98;;;3.97;;
12968;SDS011;6549;53.128;8.182;2023-03-14T19:19:34;10.52;;;2.88;;
12968;SDS011;6549;53.128;8.182;2023-03-14T19:22:35;9.45;;;3.47;;
12968;SDS011;6549;53.128;8.182;2023-03-14T19:25:35;13.13;;;3.08;;
12968;SDS011;6549;53.128;8.182;2023-03-14T19:28:36;13.30;;;3.50;;
12968;SDS011;6549;53.128;8.182;2023-03-14T19:31:36;12.82;;;4.03;;
12968;SDS011;6549;53.128;8.182;2023-03-14T19:34:37;17.90;;;4.90;;
12968;SDS011;6549;53.128;8.182;2023-03-14T19:37:37;10.57;;;3.10;;
12968;SDS011;6549;53.128;8.182;2023-03-14T19:40:38;8.98;;;2.60;;
12968;SDS011;6549;53.128;8.182;2023-03-14T19:43:39;15.03;;;3.00;;
12968;SDS011;6549;53.128;8.182;2023-03-14T19:46:40;8.07;;;3.22;;
12968;SDS011;6549;53.128;8.182;2023-03-14T19:49:40;13.55;;;4.47;;